createdAt,value
2018-11-26T00:00:21.888Z,34.53
2018-11-26T00:01:22.355Z,34.05
2018-11-26T00:02:22.825Z,33.83
2018-11-26T00:03:23.289Z,34.97
2018-11-26T00:04:23.757Z,34.15
2018-11-26T00:05:24.226Z,33.80
2018-11-26T00:06:24.692Z,33.87
2018-11-26T00:07:25.158Z,34.03
2018-11-26T00:08:25.626Z,34.22
2018-11-26T00:09:26.094Z,34.72
2018-11-26T00:10:26.561Z,33.90
2018-11-26T00:11:27.029Z,34.75
2018-11-26T00:12:27.496Z,34.28
2018-11-26T00:13:27.967Z,33.65
2018-11-26T00:14:28.429Z,33.71
2018-11-26T00:15:28.897Z,35.23
2018-11-26T00:16:29.365Z,34.06
2018-11-26T00:17:29.842Z,34.22
2018-11-26T00:18:30.300Z,34.35
2018-11-26T00:19:30.772Z,36.11
2018-11-26T00:20:31.236Z,36.07
2018-11-26T00:21:31.705Z,37.10
2018-11-26T00:22:32.171Z,35.15
2018-11-26T00:23:32.640Z,35.91
2018-11-26T00:24:33.107Z,35.85
2018-11-26T00:25:33.574Z,37.47
2018-11-26T00:26:34.048Z,37.02
2018-11-26T00:27:34.515Z,36.40
2018-11-26T00:28:34.977Z,36.65
2018-11-26T00:29:35.446Z,37.15
2018-11-26T00:30:35.911Z,37.96
2018-11-26T00:31:36.382Z,37.14
2018-11-26T00:32:36.846Z,37.89
2018-11-26T00:33:37.314Z,36.49
2018-11-26T00:34:37.783Z,35.84
2018-11-26T00:35:38.251Z,36.04
2018-11-26T00:36:38.717Z,37.04
2018-11-26T00:37:39.187Z,36.76
2018-11-26T00:38:39.705Z,36.41
2018-11-26T00:39:40.120Z,36.48
2018-11-26T00:40:40.587Z,36.48
2018-11-26T00:41:41.056Z,36.54
2018-11-26T00:42:41.522Z,37.17
2018-11-26T00:43:41.990Z,37.10
2018-11-26T00:44:42.457Z,37.41
2018-11-26T00:45:42.925Z,37.35
2018-11-26T00:46:43.389Z,37.28
2018-11-26T00:47:43.859Z,36.60
2018-11-26T00:48:44.325Z,36.28
2018-11-26T00:49:44.792Z,37.29
2018-11-26T00:50:45.347Z,36.53
2018-11-26T00:51:45.759Z,36.41
2018-11-26T00:52:46.196Z,36.04
2018-11-26T00:53:46.691Z,36.29
2018-11-26T00:54:47.129Z,37.04
2018-11-26T00:55:47.597Z,36.98
2018-11-26T00:56:48.063Z,37.47
2018-11-26T00:57:48.534Z,38.03
2018-11-26T00:58:48.998Z,37.90
2018-11-26T00:59:49.465Z,37.65
2018-11-26T01:00:49.934Z,37.53
2018-11-26T01:01:50.404Z,37.66
2018-11-26T01:02:50.868Z,37.40
2018-11-26T01:03:51.335Z,37.66
2018-11-26T01:04:51.804Z,37.78
2018-11-26T01:05:52.275Z,38.15
2018-11-26T01:06:52.741Z,37.84
2018-11-26T01:07:53.205Z,36.81
2018-11-26T01:08:53.672Z,36.63
2018-11-26T01:09:54.141Z,36.66
2018-11-26T01:10:54.605Z,35.69
2018-11-26T01:11:55.073Z,36.48
2018-11-26T01:12:55.543Z,36.55
2018-11-26T01:13:56.009Z,37.61
2018-11-26T01:14:56.474Z,36.95
2018-11-26T01:15:56.943Z,37.66
2018-11-26T01:16:57.412Z,37.50
2018-11-26T01:17:57.877Z,36.97
2018-11-26T01:18:58.343Z,38.71
2018-11-26T01:19:58.812Z,39.20
2018-11-26T01:20:59.281Z,39.01
2018-11-26T01:21:59.747Z,38.29
2018-11-26T01:23:00.214Z,39.10
2018-11-26T01:24:00.682Z,37.83
2018-11-26T01:25:01.150Z,38.79
2018-11-26T01:26:01.616Z,40.32
2018-11-26T01:27:02.085Z,39.42
2018-11-26T01:28:02.551Z,40.16
2018-11-26T01:29:03.018Z,40.83
2018-11-26T01:30:03.486Z,40.85
2018-11-26T01:31:03.954Z,41.18
2018-11-26T01:32:04.420Z,41.09
2018-11-26T01:33:04.888Z,40.69
2018-11-26T01:34:05.354Z,40.23
2018-11-26T01:35:05.823Z,40.54
2018-11-26T01:36:06.292Z,40.09
2018-11-26T01:37:06.758Z,40.52
2018-11-26T01:38:07.224Z,41.31
2018-11-26T01:39:07.691Z,41.42
2018-11-26T01:40:08.158Z,41.78
2018-11-26T01:41:08.626Z,41.47
2018-11-26T01:42:09.093Z,41.08
2018-11-26T01:43:09.561Z,41.96
2018-11-26T01:44:10.032Z,42.14
2018-11-26T01:45:10.498Z,42.37
2018-11-26T01:46:10.962Z,41.34
2018-11-26T01:47:11.430Z,41.79
2018-11-26T01:48:11.896Z,40.98
2018-11-26T01:49:12.366Z,41.63
2018-11-26T01:50:12.829Z,42.11
2018-11-26T01:51:13.296Z,42.62
2018-11-26T01:52:13.763Z,42.79
2018-11-26T01:53:14.236Z,42.64
2018-11-26T01:54:14.699Z,43.09
2018-11-26T01:55:15.165Z,42.39
2018-11-26T01:56:15.636Z,42.06
2018-11-26T01:57:16.102Z,43.33
2018-11-26T01:58:16.569Z,43.59
2018-11-26T01:59:17.036Z,44.04
2018-11-26T02:00:17.508Z,44.63
2018-11-26T02:01:17.969Z,44.89
2018-11-26T02:02:18.437Z,45.45
2018-11-26T02:03:18.904Z,45.32
2018-11-26T02:04:19.373Z,45.52
2018-11-26T02:05:19.839Z,45.73
2018-11-26T02:06:20.307Z,45.84
2018-11-26T02:07:20.774Z,46.13
2018-11-26T02:08:21.243Z,45.84
2018-11-26T02:09:21.709Z,45.36
2018-11-26T02:10:22.178Z,44.83
2018-11-26T02:11:22.644Z,44.48
2018-11-26T02:12:23.112Z,43.83
2018-11-26T02:13:23.580Z,43.99
2018-11-26T02:14:24.047Z,43.79
2018-11-26T02:15:24.513Z,43.85
2018-11-26T02:16:24.980Z,44.09
2018-11-26T02:17:25.447Z,43.97
2018-11-26T02:18:25.916Z,43.73
2018-11-26T02:19:26.381Z,43.82
2018-11-26T02:20:26.858Z,43.91
2018-11-26T02:21:27.319Z,44.57
2018-11-26T02:22:27.786Z,45.22
2018-11-26T02:23:28.251Z,45.48
2018-11-26T02:24:28.724Z,45.56
2018-11-26T02:25:29.188Z,44.61
2018-11-26T02:26:29.656Z,44.62
2018-11-26T02:27:30.121Z,44.65
2018-11-26T02:28:30.590Z,44.80
2018-11-26T02:29:31.056Z,44.80
2018-11-26T02:30:31.526Z,44.38
2018-11-26T02:31:31.990Z,44.38
2018-11-26T02:32:32.460Z,43.93
2018-11-26T02:33:32.926Z,43.66
2018-11-26T02:34:33.395Z,43.24
2018-11-26T02:35:33.861Z,43.06
2018-11-26T02:36:34.328Z,42.94
2018-11-26T02:37:34.796Z,42.49
2018-11-26T02:38:35.262Z,42.37
2018-11-26T02:39:35.729Z,42.28
2018-11-26T02:40:36.198Z,42.25
2018-11-26T02:41:36.664Z,42.77
2018-11-26T02:42:37.133Z,42.16
2018-11-26T02:43:37.599Z,42.77
2018-11-26T02:44:38.065Z,43.46
2018-11-26T02:45:38.533Z,42.58
2018-11-26T02:46:39.000Z,43.13
2018-11-26T02:47:39.467Z,42.83
2018-11-26T02:48:39.940Z,42.40
2018-11-26T02:49:40.407Z,41.92
2018-11-26T02:50:40.871Z,41.47
2018-11-26T02:51:41.338Z,41.23
2018-11-26T02:52:41.804Z,41.27
2018-11-26T02:53:42.273Z,41.51
2018-11-26T02:54:42.744Z,41.34
2018-11-26T02:55:43.206Z,40.91
2018-11-26T02:56:43.677Z,40.67
2018-11-26T02:57:44.149Z,40.48
2018-11-26T02:58:44.611Z,41.28
2018-11-26T02:59:45.075Z,41.89
2018-11-26T03:00:45.546Z,41.85
2018-11-26T03:01:46.009Z,42.30
2018-11-26T03:02:46.479Z,42.18
2018-11-26T03:03:47.036Z,41.21
2018-11-26T03:04:47.411Z,40.17
2018-11-26T03:05:47.878Z,40.15
2018-11-26T03:06:48.346Z,40.06
2018-11-26T03:07:48.812Z,39.94
2018-11-26T03:08:49.280Z,39.72
2018-11-26T03:09:49.748Z,39.70
2018-11-26T03:10:50.215Z,40.74
2018-11-26T03:11:50.683Z,40.77
2018-11-26T03:12:51.151Z,40.09
2018-11-26T03:13:51.615Z,39.81
2018-11-26T03:14:52.083Z,40.00
2018-11-26T03:15:52.555Z,39.93
2018-11-26T03:16:53.016Z,40.00
2018-11-26T03:17:53.486Z,39.56
2018-11-26T03:18:53.953Z,38.40
2018-11-26T03:19:54.420Z,39.97
2018-11-26T03:20:54.884Z,39.24
2018-11-26T03:21:55.353Z,38.41
2018-11-26T03:22:55.819Z,38.78
2018-11-26T03:23:56.287Z,39.59
2018-11-26T03:24:56.754Z,40.04
2018-11-26T03:25:57.220Z,40.07
2018-11-26T03:26:57.688Z,40.62
2018-11-26T03:27:58.156Z,40.00
2018-11-26T03:28:58.622Z,40.01
2018-11-26T03:29:59.089Z,40.34
2018-11-26T03:30:59.557Z,41.62
2018-11-26T03:32:00.037Z,40.43
2018-11-26T03:33:00.490Z,41.14
2018-11-26T03:34:00.958Z,41.95
2018-11-26T03:35:01.427Z,40.55
2018-11-26T03:36:01.892Z,41.32
2018-11-26T03:37:02.358Z,42.46
2018-11-26T03:38:02.827Z,41.77
2018-11-26T03:39:03.293Z,42.70
2018-11-26T03:40:03.760Z,42.63
2018-11-26T03:41:04.224Z,42.96
2018-11-26T03:42:04.695Z,43.20
2018-11-26T03:43:05.160Z,42.48
2018-11-26T03:44:05.626Z,42.45
2018-11-26T03:45:06.094Z,42.45
2018-11-26T03:46:06.560Z,43.21
2018-11-26T03:47:07.047Z,42.39
2018-11-26T03:48:07.493Z,42.25
2018-11-26T03:49:07.960Z,43.22
2018-11-26T03:50:08.434Z,42.88
2018-11-26T03:51:08.895Z,43.18
2018-11-26T03:52:09.361Z,42.97
2018-11-26T03:53:09.830Z,43.27
2018-11-26T03:54:10.294Z,42.91
2018-11-26T03:55:10.762Z,42.07
2018-11-26T03:56:11.228Z,42.78
2018-11-26T03:57:11.697Z,43.40
2018-11-26T03:58:12.161Z,43.37
2018-11-26T03:59:12.629Z,42.95
2018-11-26T04:00:13.094Z,42.98
2018-11-26T04:01:13.562Z,43.07
2018-11-26T04:02:14.028Z,43.58
2018-11-26T04:03:14.495Z,43.40
2018-11-26T04:04:14.961Z,43.60
2018-11-26T04:05:15.433Z,43.99
2018-11-26T04:06:15.898Z,43.30
2018-11-26T04:07:16.361Z,43.12
2018-11-26T04:08:16.828Z,41.88
2018-11-26T04:09:17.300Z,42.55
2018-11-26T04:10:17.762Z,43.39
2018-11-26T04:11:18.236Z,43.41
2018-11-26T04:12:18.695Z,43.11
2018-11-26T04:13:19.164Z,44.28
2018-11-26T04:14:19.629Z,44.96
2018-11-26T04:15:20.095Z,43.16
2018-11-26T04:16:20.561Z,43.22
2018-11-26T04:17:21.028Z,43.55
2018-11-26T04:18:21.494Z,43.49
2018-11-26T04:19:21.964Z,42.77
2018-11-26T04:20:22.428Z,43.70
2018-11-26T04:21:22.896Z,43.97
2018-11-26T04:22:23.360Z,43.28
2018-11-26T04:23:23.830Z,42.83
2018-11-26T04:24:24.293Z,42.53
2018-11-26T04:25:24.762Z,42.20
2018-11-26T04:26:25.229Z,41.84
2018-11-26T04:27:25.693Z,42.02
2018-11-26T04:28:26.161Z,41.93
2018-11-26T04:29:26.630Z,41.45
2018-11-26T04:30:27.093Z,41.72
2018-11-26T04:31:27.560Z,41.66
2018-11-26T04:32:28.027Z,41.97
2018-11-26T04:33:28.495Z,42.11
2018-11-26T04:34:28.962Z,42.50
2018-11-26T04:35:29.426Z,43.64
2018-11-26T04:36:29.894Z,43.79
2018-11-26T04:37:30.359Z,42.80
2018-11-26T04:38:30.826Z,43.66
2018-11-26T04:39:31.299Z,42.17
2018-11-26T04:40:31.759Z,42.84
2018-11-26T04:41:32.224Z,41.90
2018-11-26T04:42:32.692Z,42.11
2018-11-26T04:43:33.159Z,43.32
2018-11-26T04:44:33.624Z,42.35
2018-11-26T04:45:34.090Z,43.35
2018-11-26T04:46:34.556Z,44.33
2018-11-26T04:47:35.026Z,45.03
2018-11-26T04:48:35.489Z,43.84
2018-11-26T04:49:35.961Z,44.56
2018-11-26T04:50:36.426Z,42.31
2018-11-26T04:51:36.889Z,42.50
2018-11-26T04:52:37.355Z,43.10
2018-11-26T04:53:37.824Z,42.92
2018-11-26T04:54:38.288Z,41.93
2018-11-26T04:55:38.756Z,42.77
2018-11-26T04:56:39.222Z,42.60
2018-11-26T04:57:42.551Z,41.84
2018-11-26T04:58:40.154Z,42.24
2018-11-26T04:59:40.623Z,43.05
2018-11-26T05:00:41.086Z,44.16
2018-11-26T05:01:41.553Z,44.77
2018-11-26T05:02:42.028Z,44.43
2018-11-26T05:03:42.490Z,45.26
2018-11-26T05:04:42.950Z,44.01
2018-11-26T05:05:43.423Z,44.24
2018-11-26T05:06:43.892Z,43.85
2018-11-26T05:07:44.354Z,44.18
2018-11-26T05:08:44.819Z,44.56
2018-11-26T05:09:45.295Z,45.27
2018-11-26T05:10:45.749Z,44.97
2018-11-26T05:11:46.217Z,44.86
2018-11-26T05:12:46.681Z,45.28
2018-11-26T05:13:47.149Z,45.33
2018-11-26T05:14:47.616Z,45.90
2018-11-26T05:15:48.083Z,45.07
2018-11-26T05:16:48.550Z,44.60
2018-11-26T05:17:49.017Z,45.08
2018-11-26T05:18:49.482Z,45.52
2018-11-26T05:19:49.946Z,45.70
2018-11-26T05:20:50.413Z,46.19
2018-11-26T05:21:50.882Z,46.63
2018-11-26T05:22:51.346Z,47.30
2018-11-26T05:23:51.812Z,46.94
2018-11-26T05:24:52.278Z,47.14
2018-11-26T05:25:52.746Z,46.91
2018-11-26T05:26:53.217Z,46.73
2018-11-26T05:27:53.677Z,46.94
2018-11-26T05:28:54.144Z,47.41
2018-11-26T05:29:54.611Z,47.15
2018-11-26T05:30:55.127Z,46.95
2018-11-26T05:31:55.544Z,47.13
2018-11-26T05:32:56.009Z,47.19
2018-11-26T05:33:56.474Z,46.52
2018-11-26T05:34:56.940Z,46.98
2018-11-26T05:35:57.406Z,45.61
2018-11-26T05:36:57.871Z,45.53
2018-11-26T05:37:58.340Z,45.59
2018-11-26T05:38:58.808Z,44.73
2018-11-26T05:39:59.276Z,45.42
2018-11-26T05:40:59.739Z,45.97
2018-11-26T05:42:00.203Z,45.05
2018-11-26T05:43:00.676Z,45.99
2018-11-26T05:44:01.137Z,44.15
2018-11-26T05:45:01.605Z,43.89
2018-11-26T05:46:02.071Z,42.70
2018-11-26T05:47:02.538Z,43.90
2018-11-26T05:48:03.004Z,43.00
2018-11-26T05:49:03.469Z,43.69
2018-11-26T05:50:03.932Z,44.71
2018-11-26T05:51:04.401Z,43.51
2018-11-26T05:52:04.865Z,43.32
2018-11-26T05:53:05.330Z,43.86
2018-11-26T05:54:05.799Z,42.90
2018-11-26T05:55:06.264Z,42.73
2018-11-26T05:56:06.782Z,43.57
2018-11-26T05:57:07.196Z,43.56
2018-11-26T05:58:07.662Z,42.51
2018-11-26T05:59:08.128Z,44.04
2018-11-26T06:00:08.592Z,45.64
2018-11-26T06:01:09.062Z,45.95
2018-11-26T06:02:09.523Z,46.79
2018-11-26T06:03:09.990Z,48.44
2018-11-26T06:04:10.457Z,49.18
2018-11-26T06:05:10.925Z,49.59
2018-11-26T06:06:11.388Z,48.90
2018-11-26T06:07:11.853Z,48.67
2018-11-26T06:08:12.320Z,48.67
2018-11-26T06:09:12.783Z,50.11
2018-11-26T06:10:13.249Z,50.70
2018-11-26T06:11:13.717Z,49.84
2018-11-26T06:12:14.184Z,49.90
2018-11-26T06:13:14.648Z,50.58
2018-11-26T06:14:15.114Z,50.16
2018-11-26T06:15:15.580Z,49.99
2018-11-26T06:16:16.046Z,50.82
2018-11-26T06:17:16.511Z,50.42
2018-11-26T06:18:16.976Z,50.66
2018-11-26T06:19:17.443Z,50.51
2018-11-26T06:20:17.908Z,51.73
2018-11-26T06:21:18.373Z,51.41
2018-11-26T06:22:18.839Z,49.52
2018-11-26T06:23:19.306Z,50.13
2018-11-26T06:24:19.772Z,49.70
2018-11-26T06:25:20.236Z,49.85
2018-11-26T06:26:20.704Z,50.43
2018-11-26T06:27:21.167Z,50.29
2018-11-26T06:28:21.635Z,50.40
2018-11-26T06:29:22.099Z,51.00
2018-11-26T06:30:22.565Z,51.74
2018-11-26T06:31:23.042Z,52.72
2018-11-26T06:32:23.512Z,51.08
2018-11-26T06:33:23.962Z,51.43
2018-11-26T06:34:24.427Z,50.69
2018-11-26T06:35:24.893Z,52.06
2018-11-26T06:36:25.361Z,51.75
2018-11-26T06:37:25.823Z,51.52
2018-11-26T06:38:26.289Z,49.87
2018-11-26T06:39:26.754Z,49.50
2018-11-26T06:40:27.221Z,48.64
2018-11-26T06:41:27.685Z,49.49
2018-11-26T06:42:28.153Z,51.60
2018-11-26T06:43:28.616Z,51.45
2018-11-26T06:44:29.082Z,52.02
2018-11-26T06:45:29.548Z,53.25
2018-11-26T06:46:30.013Z,55.38
2018-11-26T06:47:30.483Z,56.44
2018-11-26T06:48:30.944Z,57.63
2018-11-26T06:49:31.409Z,58.49
2018-11-26T06:50:31.876Z,59.37
2018-11-26T06:51:32.341Z,58.35
2018-11-26T06:52:32.805Z,58.40
2018-11-26T06:53:33.270Z,59.54
2018-11-26T06:54:33.739Z,59.75
2018-11-26T06:55:34.204Z,60.68
2018-11-26T06:56:34.668Z,61.51
2018-11-26T06:57:35.134Z,61.95
2018-11-26T06:58:35.598Z,61.32
2018-11-26T06:59:36.066Z,57.40
2018-11-26T07:00:36.531Z,56.91
2018-11-26T07:01:36.996Z,56.53
2018-11-26T07:02:37.462Z,56.24
2018-11-26T07:03:37.929Z,56.87
2018-11-26T07:04:38.400Z,56.19
2018-11-26T07:05:38.859Z,56.09
2018-11-26T07:06:39.325Z,58.27
2018-11-26T07:07:39.788Z,60.12
2018-11-26T07:08:40.255Z,62.87
2018-11-26T07:09:40.721Z,66.94
2018-11-26T07:10:41.186Z,69.79
2018-11-26T07:11:41.651Z,70.85
2018-11-26T07:12:42.116Z,72.46
2018-11-26T07:13:42.582Z,73.44
2018-11-26T07:14:43.048Z,74.49
2018-11-26T07:15:43.515Z,75.47
2018-11-26T07:16:43.978Z,76.05
2018-11-26T07:17:44.443Z,74.55
2018-11-26T07:18:44.909Z,71.89
2018-11-26T07:19:45.374Z,71.39
2018-11-26T07:20:45.862Z,70.23
2018-11-26T07:21:46.313Z,69.69
2018-11-26T07:22:46.772Z,70.02
2018-11-26T07:23:47.237Z,69.69
2018-11-26T07:24:47.702Z,69.69
2018-11-26T07:25:48.166Z,69.84
2018-11-26T07:26:48.635Z,67.74
2018-11-26T07:27:49.102Z,67.54
2018-11-26T07:28:49.565Z,67.62
2018-11-26T07:29:50.029Z,67.79
2018-11-26T07:30:50.496Z,67.72
2018-11-26T07:31:50.960Z,67.94
2018-11-26T07:32:51.425Z,67.87
2018-11-26T07:33:51.891Z,67.45
2018-11-26T07:34:52.357Z,67.85
2018-11-26T07:35:52.823Z,67.49
2018-11-26T07:36:53.290Z,67.32
2018-11-26T07:37:53.759Z,67.34
2018-11-26T07:38:54.220Z,67.30
2018-11-26T07:39:54.684Z,67.32
2018-11-26T07:40:55.151Z,67.27
2018-11-26T07:41:55.616Z,66.77
2018-11-26T07:42:56.082Z,65.89
2018-11-26T07:43:56.546Z,65.73
2018-11-26T07:44:57.014Z,65.60
2018-11-26T07:45:57.476Z,65.61
2018-11-26T07:46:57.944Z,65.33
2018-11-26T07:47:58.409Z,65.01
2018-11-26T07:48:58.878Z,65.03
2018-11-26T07:49:59.341Z,65.22
2018-11-26T07:50:59.803Z,65.07
2018-11-26T07:52:00.270Z,64.93
2018-11-26T07:53:00.738Z,64.89
2018-11-26T07:54:01.201Z,65.39
2018-11-26T07:55:01.664Z,65.96
2018-11-26T07:56:02.129Z,65.39
2018-11-26T07:57:02.596Z,65.20
2018-11-26T07:58:03.062Z,66.56
2018-11-26T07:59:03.527Z,66.59
2018-11-26T08:00:03.992Z,67.62
2018-11-26T08:01:04.457Z,69.66
2018-11-26T08:02:04.924Z,68.37
2018-11-26T08:03:05.391Z,69.56
2018-11-26T08:04:05.855Z,69.63
2018-11-26T08:05:06.323Z,70.67
2018-11-26T08:06:08.873Z,71.11
2018-11-26T08:07:07.251Z,71.69
2018-11-26T08:08:07.717Z,73.30
2018-11-26T08:09:08.183Z,74.19
2018-11-26T08:10:08.650Z,74.58
2018-11-26T08:11:09.116Z,75.37
2018-11-26T08:12:09.582Z,76.44
2018-11-26T08:13:10.044Z,76.87
2018-11-26T08:14:10.513Z,77.61
2018-11-26T08:15:10.975Z,78.04
2018-11-26T08:16:11.441Z,77.58
2018-11-26T08:17:11.907Z,77.09
2018-11-26T08:18:12.372Z,77.26
2018-11-26T08:19:12.839Z,76.87
2018-11-26T08:20:13.307Z,77.54
2018-11-26T08:21:13.770Z,77.05
2018-11-26T08:22:14.234Z,75.91
2018-11-26T08:23:14.701Z,75.90
2018-11-26T08:24:15.168Z,75.53
2018-11-26T08:25:15.633Z,74.19
2018-11-26T08:26:16.098Z,73.26
2018-11-26T08:27:16.564Z,73.65
2018-11-26T08:28:17.031Z,74.45
2018-11-26T08:29:17.497Z,74.61
2018-11-26T08:30:17.962Z,73.44
2018-11-26T08:31:18.430Z,73.86
2018-11-26T08:32:18.898Z,73.60
2018-11-26T08:33:19.360Z,73.75
2018-11-26T08:34:19.826Z,74.15
2018-11-26T08:35:20.299Z,74.72
2018-11-26T08:36:20.760Z,74.49
2018-11-26T08:37:21.223Z,73.82
2018-11-26T08:38:21.689Z,72.61
2018-11-26T08:39:22.156Z,71.14
2018-11-26T08:40:22.623Z,70.77
2018-11-26T08:41:23.093Z,70.94
2018-11-26T08:42:23.554Z,70.56
2018-11-26T08:43:24.403Z,70.19
2018-11-26T08:44:24.488Z,68.62
2018-11-26T08:45:24.955Z,67.88
2018-11-26T08:46:25.420Z,66.38
2018-11-26T08:47:25.886Z,66.57
2018-11-26T08:48:26.361Z,66.41
2018-11-26T08:49:26.823Z,66.26
2018-11-26T08:50:27.290Z,65.98
2018-11-26T08:51:27.752Z,66.00
2018-11-26T08:52:28.219Z,65.74
2018-11-26T08:53:28.687Z,65.63
2018-11-26T08:54:29.152Z,65.38
2018-11-26T08:55:29.617Z,65.79
2018-11-26T08:56:30.085Z,65.43
2018-11-26T08:57:30.552Z,65.09
2018-11-26T08:58:31.024Z,65.42
2018-11-26T08:59:31.486Z,64.30
2018-11-26T09:00:31.952Z,64.84
2018-11-26T09:01:32.420Z,65.02
2018-11-26T09:02:32.891Z,64.77
2018-11-26T09:03:33.354Z,64.56
2018-11-26T09:04:33.821Z,63.56
2018-11-26T09:05:34.287Z,64.58
2018-11-26T09:06:34.754Z,64.42
2018-11-26T09:07:35.221Z,64.90
2018-11-26T09:08:35.689Z,65.66
2018-11-26T09:09:36.158Z,65.08
2018-11-26T09:10:36.621Z,64.93
2018-11-26T09:11:37.089Z,64.13
2018-11-26T09:12:37.559Z,63.43
2018-11-26T09:13:38.026Z,62.91
2018-11-26T09:14:38.491Z,63.41
2018-11-26T09:15:38.958Z,62.91
2018-11-26T09:16:39.426Z,64.11
2018-11-26T09:17:39.894Z,63.58
2018-11-26T09:18:40.360Z,62.76
2018-11-26T09:19:40.829Z,62.28
2018-11-26T09:20:41.298Z,62.92
2018-11-26T09:21:41.764Z,63.00
2018-11-26T09:22:42.229Z,61.47
2018-11-26T09:23:42.697Z,61.35
2018-11-26T09:24:43.205Z,60.43
2018-11-26T09:25:43.633Z,60.18
2018-11-26T09:26:44.105Z,60.03
2018-11-26T09:27:44.580Z,59.53
2018-11-26T09:28:45.084Z,59.32
2018-11-26T09:29:45.504Z,59.76
2018-11-26T09:30:45.972Z,57.71
2018-11-26T09:31:46.457Z,57.83
2018-11-26T09:32:46.906Z,58.51
2018-11-26T09:33:47.374Z,59.89
2018-11-26T09:34:47.844Z,60.32
2018-11-26T09:35:48.308Z,59.69
2018-11-26T09:36:48.777Z,59.18
2018-11-26T09:37:49.245Z,60.45
2018-11-26T09:38:49.722Z,59.38
2018-11-26T09:39:50.182Z,59.64
2018-11-26T09:40:50.649Z,60.70
2018-11-26T09:41:51.118Z,60.81
2018-11-26T09:42:51.585Z,60.20
2018-11-26T09:43:52.055Z,59.80
2018-11-26T09:44:52.521Z,59.87
2018-11-26T09:45:52.990Z,59.77
2018-11-26T09:46:53.459Z,60.53
2018-11-26T09:47:53.927Z,59.49
2018-11-26T09:48:54.396Z,58.24
2018-11-26T09:49:54.864Z,58.62
2018-11-26T09:50:55.330Z,58.51
2018-11-26T09:51:55.800Z,59.63
2018-11-26T09:52:56.319Z,61.36
2018-11-26T09:53:56.738Z,61.89
2018-11-26T09:54:57.206Z,60.84
2018-11-26T09:55:57.673Z,59.64
2018-11-26T09:56:58.144Z,60.33
2018-11-26T09:57:58.612Z,59.74
2018-11-26T09:58:59.089Z,60.68
2018-11-26T09:59:59.548Z,60.66
2018-11-26T10:01:00.036Z,60.53
2018-11-26T10:02:00.486Z,59.99
2018-11-26T10:03:00.957Z,60.47
2018-11-26T10:04:01.423Z,60.42
2018-11-26T10:05:01.891Z,60.74
2018-11-26T10:06:02.360Z,61.77
2018-11-26T10:07:02.828Z,63.03
2018-11-26T10:08:03.300Z,63.91
2018-11-26T10:09:03.766Z,63.56
2018-11-26T10:10:04.284Z,63.93
2018-11-26T10:11:04.704Z,64.78
2018-11-26T10:12:05.172Z,65.29
2018-11-26T10:13:05.643Z,66.43
2018-11-26T10:14:06.118Z,66.05
2018-11-26T10:15:06.581Z,63.90
2018-11-26T10:16:07.052Z,63.49
2018-11-26T10:17:07.522Z,63.81
2018-11-26T10:18:07.988Z,64.65
2018-11-26T10:19:08.457Z,65.07
2018-11-26T10:20:08.928Z,66.49
2018-11-26T10:21:09.395Z,67.42
2018-11-26T10:22:09.866Z,66.48
2018-11-26T10:23:10.333Z,67.21
2018-11-26T10:24:10.806Z,68.16
2018-11-26T10:25:11.275Z,69.39
2018-11-26T10:26:11.744Z,70.68
2018-11-26T10:27:12.214Z,70.95
2018-11-26T10:28:12.682Z,70.33
2018-11-26T10:29:13.150Z,70.43
2018-11-26T10:30:13.622Z,70.71
2018-11-26T10:31:14.089Z,70.60
2018-11-26T10:32:14.559Z,70.30
2018-11-26T10:33:15.160Z,69.54
2018-11-26T10:34:15.499Z,69.03
2018-11-26T10:35:15.968Z,68.77
2018-11-26T10:36:16.440Z,69.41
2018-11-26T10:37:16.907Z,69.09
2018-11-26T10:38:17.379Z,69.10
2018-11-26T10:39:17.849Z,67.96
2018-11-26T10:40:18.318Z,68.22
2018-11-26T10:41:18.787Z,68.56
2018-11-26T10:42:19.258Z,69.48
2018-11-26T10:43:19.731Z,69.60
2018-11-26T10:44:20.199Z,69.53
2018-11-26T10:45:20.668Z,69.52
2018-11-26T10:46:21.138Z,69.26
2018-11-26T10:47:21.609Z,70.88
2018-11-26T10:48:22.078Z,71.03
2018-11-26T10:49:22.554Z,71.11
2018-11-26T10:50:23.023Z,71.62
2018-11-26T10:51:23.494Z,71.16
2018-11-26T10:52:23.963Z,70.01
2018-11-26T10:53:24.430Z,69.45
2018-11-26T10:54:24.901Z,69.29
2018-11-26T10:55:25.371Z,69.20
2018-11-26T10:56:25.841Z,68.88
2018-11-26T10:57:26.320Z,68.65
2018-11-26T10:58:26.785Z,68.19
2018-11-26T10:59:27.253Z,67.49
2018-11-26T11:00:27.726Z,66.97
2018-11-26T11:01:28.195Z,66.95
2018-11-26T11:02:28.666Z,67.49
2018-11-26T11:03:29.136Z,67.25
2018-11-26T11:04:29.606Z,66.05
2018-11-26T11:05:30.077Z,66.26
2018-11-26T11:06:30.547Z,65.85
2018-11-26T11:07:31.018Z,65.94
2018-11-26T11:08:31.513Z,65.07
2018-11-26T11:09:31.983Z,65.19
2018-11-26T11:10:32.434Z,65.01
2018-11-26T11:11:32.903Z,65.45
2018-11-26T11:12:33.373Z,65.22
2018-11-26T11:13:33.848Z,64.96
2018-11-26T11:14:34.317Z,65.39
2018-11-26T11:15:34.789Z,65.42
2018-11-26T11:16:35.258Z,65.30
2018-11-26T11:17:35.728Z,65.41
2018-11-26T11:18:36.201Z,65.09
2018-11-26T11:19:36.673Z,64.68
2018-11-26T11:20:37.144Z,65.20
2018-11-26T11:21:37.616Z,65.71
2018-11-26T11:22:38.089Z,65.85
2018-11-26T11:23:38.557Z,65.69
2018-11-26T11:24:39.032Z,65.42
2018-11-26T11:25:39.501Z,65.29
2018-11-26T11:26:39.975Z,65.77
2018-11-26T11:27:40.446Z,65.55
2018-11-26T11:28:40.916Z,64.71
2018-11-26T11:29:41.389Z,64.81
2018-11-26T11:30:41.863Z,64.88
2018-11-26T11:31:42.332Z,65.11
2018-11-26T11:32:42.805Z,66.12
2018-11-26T11:33:43.276Z,66.57
2018-11-26T11:34:43.748Z,66.79
2018-11-26T11:35:44.431Z,66.99
2018-11-26T11:36:44.694Z,67.07
2018-11-26T11:37:45.239Z,67.47
2018-11-26T11:38:45.636Z,68.69
2018-11-26T11:39:46.109Z,68.86
2018-11-26T11:40:46.638Z,69.01
2018-11-26T11:41:47.079Z,69.56
2018-11-26T11:42:47.528Z,70.19
2018-11-26T11:43:47.995Z,71.15
2018-11-26T11:44:48.470Z,72.70
2018-11-26T11:45:48.942Z,73.47
2018-11-26T11:46:49.415Z,74.45
2018-11-26T11:47:49.885Z,74.58
2018-11-26T11:48:50.357Z,74.69
2018-11-26T11:49:50.831Z,75.13
2018-11-26T11:50:51.306Z,74.32
2018-11-26T11:51:51.776Z,73.84
2018-11-26T11:52:52.249Z,74.61
2018-11-26T11:53:52.721Z,74.55
2018-11-26T11:54:53.193Z,72.74
2018-11-26T11:55:53.668Z,72.01
2018-11-26T11:56:54.141Z,71.56
2018-11-26T11:57:54.612Z,70.80
2018-11-26T11:58:55.083Z,70.79
2018-11-26T11:59:55.555Z,71.73
2018-11-26T12:00:56.026Z,72.66
2018-11-26T12:01:56.501Z,73.81
2018-11-26T12:02:56.971Z,74.41
2018-11-26T12:03:57.443Z,73.90
2018-11-26T12:04:57.915Z,74.61
2018-11-26T12:05:58.386Z,75.17
2018-11-26T12:06:58.858Z,75.93
2018-11-26T12:07:59.329Z,76.25
2018-11-26T12:08:59.797Z,77.07
2018-11-26T12:10:00.267Z,76.57
2018-11-26T12:11:00.737Z,76.66
2018-11-26T12:12:01.208Z,77.55
2018-11-26T12:13:01.677Z,76.52
2018-11-26T12:14:02.147Z,76.20
2018-11-26T12:15:02.618Z,76.02
2018-11-26T12:16:03.086Z,75.90
2018-11-26T12:17:03.558Z,76.90
2018-11-26T12:18:04.026Z,77.53
2018-11-26T12:19:04.494Z,76.97
2018-11-26T12:20:04.964Z,77.86
2018-11-26T12:21:05.431Z,79.51
2018-11-26T12:22:05.900Z,80.35
2018-11-26T12:23:06.371Z,80.26
2018-11-26T12:24:06.840Z,80.51
2018-11-26T12:25:07.304Z,80.69
2018-11-26T12:26:07.775Z,80.95
2018-11-26T12:27:08.243Z,81.12
2018-11-26T12:28:08.710Z,82.22
2018-11-26T12:29:09.178Z,82.86
2018-11-26T12:30:09.652Z,82.99
2018-11-26T12:31:10.118Z,83.54
2018-11-26T12:32:10.586Z,84.10
2018-11-26T12:33:11.055Z,84.19
2018-11-26T12:34:11.522Z,84.67
2018-11-26T12:35:11.995Z,84.64
2018-11-26T12:36:12.461Z,85.11
2018-11-26T12:37:12.932Z,85.61
2018-11-26T12:38:13.400Z,85.65
2018-11-26T12:39:13.871Z,85.77
2018-11-26T12:40:14.341Z,85.86
2018-11-26T12:41:14.808Z,86.14
2018-11-26T12:42:15.280Z,86.56
2018-11-26T12:43:15.749Z,86.87
2018-11-26T12:44:16.216Z,87.02
2018-11-26T12:45:16.690Z,87.30
2018-11-26T12:46:17.158Z,87.31
2018-11-26T12:47:17.631Z,87.30
2018-11-26T12:48:18.099Z,87.38
2018-11-26T12:49:18.568Z,87.66
2018-11-26T12:50:19.040Z,87.90
2018-11-26T12:51:19.512Z,88.18
2018-11-26T12:52:19.979Z,88.58
2018-11-26T12:53:20.450Z,88.63
2018-11-26T12:54:20.923Z,88.84
2018-11-26T12:55:21.394Z,88.78
2018-11-26T12:56:21.864Z,88.99
2018-11-26T12:57:22.343Z,89.17
2018-11-26T12:58:22.814Z,89.12